EW9645 Weather Reports


time (UTC)temp
C
wind
direction
speed
KPH
gust
KPH
rain 1hr
cm
rain 24hr
cm
rain mn
cm
humidity
%
barometer
mb
20190821140010 20 264 8.0 17.7 0.00 0.00 0.00 56 1025.5
20190821134510 20 340 4.8 16.1 0.00 0.00 0.00 57 1025.5
20190821133010 20 317 8.0 17.7 0.00 0.00 0.00 58 1025.6
20190821131517 21 239 6.4 16.1 0.00 0.00 0.00 55 1025.6
20190821130034 20 349 6.4 19.3 0.00 0.00 0.00 56 1025.6
20190821124522 20 290 4.8 12.9 0.00 0.00 0.00 59 1025.7
20190821123042 20 237 6.4 16.1 0.00 0.00 0.00 60 1025.7
20190821121554 20 239 4.8 12.9 0.00 0.00 0.00 61 1025.7
20190821120014 20 261 8.0 17.7 0.00 0.00 0.00 60 1025.7
20190821114511 20 296 4.8 16.1 0.00 0.00 0.00 64 1025.8
20190821113004 20 286 6.4 16.1 0.00 0.00 0.00 63 1025.6
20190821111512 20 251 6.4 17.7 0.00 0.00 0.00 64 1025.6
20190821110004 18 318 1.6 17.7 0.00 0.00 0.00 70 1025.6
20190821104535 18 203 4.8 14.5 0.00 0.00 0.00 69 1025.7
20190821103011 18 271 8.0 16.1 0.00 0.00 0.00 72 1025.7
20190821101520 17 227 4.8 16.1 0.00 0.00 0.00 74 1025.8
20190821100005 17 254 4.8 12.9 0.00 0.00 0.00 75 1025.7
20190821094516 17 253 0.0 8.0 0.00 0.00 0.00 77 1025.7
20190821093023 16 242 3.2 11.3 0.00 0.00 0.00 81 1025.7
20190821091518 16 260 3.2 9.7 0.00 0.00 0.00 81 1025.7
20190821090024 16 244 3.2 16.1 0.00 0.00 0.00 80 1025.7
20190821084521 17 244 6.4 16.1 0.00 0.00 0.00 79 1025.5
20190821083037 16 296 4.8 14.5 0.00 0.00 0.00 81 1025.5
20190821081511 16 298 6.4 11.3 0.00 0.00 0.00 81 1025.5
20190821080021 16 266 8.0 19.3 0.00 0.00 0.00 80 1025.5
20190821074509 16 285 4.8 14.5 0.00 0.00 0.00 82 1025.2
20190821073012 16 252 1.6 11.3 0.00 0.00 0.00 85 1025.2
20190821071517 15 259 0.0 3.2 0.00 0.00 0.00 89 1025.1
20190821070010 14 256 1.6 8.0 0.00 0.00 0.00 89 1025.1
20190821064534 14 205 1.6 8.0 0.00 0.00 0.00 89 1025.0
20190821063014 14 274 0.0 3.2 0.00 0.00 0.00 90 1024.8
20190821061523 13 257 0.0 3.2 0.00 0.00 0.00 94 1024.8
20190821060004 12 253 0.0 3.2 0.00 0.00 0.00 96 1024.6
20190821054547 11 264 0.0 1.6 0.00 0.00 0.00 96 1024.4
20190821053025 11 266 0.0 1.6 0.00 0.00 0.00 96 1024.2
20190821051517 11 290 0.0 0.0 0.00 0.00 0.00 96 1024.1
20190821050057 11 290 0.0 0.0 0.00 0.00 0.00 96 1024.0
20190821044517 11 293 0.0 0.0 0.00 0.00 0.00 96 1023.9
20190821043003 10 293 0.0 0.0 0.00 0.00 0.00 95 1023.8
20190821041510 10 293 0.0 0.0 0.00 0.00 0.00 95 1023.6
20190821040008 10 293 0.0 0.0 0.00 0.00 0.00 95 1023.6
20190821034517 11 293 0.0 0.0 0.00 0.00 0.00 95 1023.6
20190821033015 11 293 0.0 0.0 0.00 0.00 0.00 95 1023.5
20190821031520 11 296 0.0 0.0 0.00 0.00 0.00 95 1023.4
20190821030012 11 296 0.0 0.0 0.00 0.00 0.00 95 1023.3
20190821024609 11 296 0.0 0.0 0.00 0.00 0.00 94 1023.3
20190821023003 11 296 0.0 0.0 0.00 0.00 0.00 94 1023.1
20190821021510 11 296 0.0 0.0 0.00 0.00 0.00 94 1023.1
20190821020007 11 296 0.0 0.0 0.00 0.00 0.00 94 1023.1
20190821014523 11 296 0.0 0.0 0.00 0.00 0.00 94 1023.0
20190821013020 11 296 0.0 0.0 0.00 0.00 0.00 93 1022.9
20190821011524 11 296 0.0 0.0 0.00 0.00 0.00 93 1022.8
20190821010107 12 296 0.0 0.0 0.00 0.00 0.00 93 1022.6
20190821004517 12 296 0.0 0.0 0.00 0.00 0.00 93 1022.5
20190821003005 12 296 0.0 0.0 0.00 0.00 0.00 93 1022.5
20190821001527 12 296 0.0 0.0 0.00 0.00 0.00 92 1022.5
20190821000013 12 296 0.0 0.0 0.00 0.00 0.00 91 1022.6
20190820234513 12 296 0.0 0.0 0.00 0.00 0.00 90 1022.7
20190820233004 12 296 0.0 0.0 0.00 0.00 0.00 89 1022.6
20190820231511 13 296 0.0 0.0 0.00 0.00 0.00 89 1022.4
20190820230025 13 296 0.0 0.0 0.00 0.00 0.00 90 1022.3
20190820224504 13 296 0.0 0.0 0.00 0.00 0.00 90 1022.1
20190820223002 13 296 0.0 0.0 0.00 0.00 0.00 89 1022.2
20190820221504 13 296 0.0 0.0 0.00 0.00 0.00 89 1022.1
20190820220046 13 296 0.0 0.0 0.00 0.00 0.00 89 1022.0
20190820214516 13 296 0.0 0.0 0.00 0.00 0.00 88 1021.9
20190820213004 13 296 0.0 0.0 0.00 0.00 0.00 87 1021.8
20190820211515 14 296 0.0 0.0 0.00 0.00 0.00 86 1021.7
20190820210003 14 296 0.0 0.0 0.00 0.00 0.00 86 1021.6
20190820204515 14 296 0.0 0.0 0.00 0.00 0.00 84 1021.5
20190820203012 15 296 0.0 0.0 0.00 0.00 0.00 81 1021.5
20190820201539 16 296 0.0 0.0 0.00 0.00 0.00 80 1021.4
20190820200006 16 296 0.0 0.0 0.00 0.00 0.00 79 1021.4
20190820194544 16 296 0.0 0.0 0.00 0.00 0.00 78 1021.3
20190820193015 16 296 0.0 0.0 0.00 0.00 0.00 78 1021.3
20190820191536 16 296 0.0 0.0 0.00 0.00 0.00 77 1021.2
20190820190020 16 296 0.0 0.0 0.00 0.00 0.00 75 1021.1
20190820184519 17 296 0.0 0.0 0.00 0.00 0.00 71 1021.0
20190820183046 17 298 0.0 6.4 0.00 0.00 0.00 69 1020.8
20190820180012 18 349 4.8 12.9 0.00 0.00 0.00 64 1020.4
20190820174531 18 316 3.2 14.5 0.00 0.00 0.00 60 1020.2
20190820173022 19 262 4.8 14.5 0.00 0.00 0.00 58 1020.0
20190820171513 20 323 6.4 17.7 0.00 0.00 0.00 59 1019.9
20190820170004 20 360 4.8 12.9 0.00 0.00 0.00 60 1019.8
20190820164528 20 11 4.8 12.9 0.00 0.00 0.00 56 1019.8
20190820163025 20 275 4.8 14.5 0.00 0.00 0.00 57 1019.8
20190820161528 20 344 6.4 16.1 0.00 0.00 0.00 56 1019.8
20190820160011 20 336 3.2 12.9 0.00 0.00 0.00 53 1019.6
20190820154527 21 345 0.0 8.0 0.00 0.00 0.00 54 1019.4
20190820153003 21 284 4.8 16.1 0.00 0.00 0.00 55 1019.2
20190820151510 20 351 6.4 19.3 0.00 0.00 0.00 55 1019.2
20190820150003 20 344 4.8 16.1 0.00 0.00 0.00 57 1019.2
20190820144504 21 360 6.4 16.1 0.00 0.00 0.00 53 1019.3
20190820141524 20 304 3.2 14.5 0.00 0.00 0.00 55 1019.3